Time;durP1;ratioP1;P1;durP2;ratioP2;P2;SDS_P1;SDS_P2;PMS_P1;PMS_P2;Temp;Humidity;BMP_temperature;BMP_pressure;BME280_temperature;BME280_humidity;BME280_pressure;Samples;Min_cycle;Max_cycle;Signal;HPM_P1;HPM_P2
2023/07/29 00:00:50;;;;;;;14.40;11.60;;;17.50;94.30;;;;;;5072633;28;20028;-47
2023/07/29 00:03:17;;;;;;;15.45;12.60;;;17.50;94.30;;;;;;5073415;28;20438;-48
2023/07/29 00:05:47;;;;;;;14.25;10.35;;;17.40;94.30;;;;;;5072519;28;20890;-46
2023/07/29 00:08:13;;;;;;;13.48;12.05;;;17.50;94.30;;;;;;5073315;28;20111;-47
2023/07/29 00:10:43;;;;;;;15.55;13.88;;;17.50;94.30;;;;;;5073139;28;20032;-47
2023/07/29 00:13:10;;;;;;;17.40;13.68;;;17.40;94.30;;;;;;5072230;28;20040;-47
2023/07/29 00:15:39;;;;;;;11.90;10.02;;;17.40;94.30;;;;;;5073228;28;20032;-46
2023/07/29 00:18:05;;;;;;;13.35;11.88;;;17.50;94.30;;;;;;5055824;28;20021;-47
2023/07/29 00:20:32;;;;;;;11.57;9.68;;;17.40;94.20;;;;;;5073109;28;20035;-47
2023/07/29 00:22:59;;;;;;;13.77;11.77;;;17.40;94.30;;;;;;5075112;28;20067;-46
2023/07/29 00:25:26;;;;;;;15.80;12.55;;;17.40;94.30;;;;;;5076743;28;20029;-47
2023/07/29 00:27:56;;;;;;;16.05;11.73;;;17.40;94.30;;;;;;5076280;28;20068;-46
2023/07/29 00:30:23;;;;;;;15.35;13.63;;;17.40;94.30;;;;;;5076850;28;20025;-47
2023/07/29 00:32:49;;;;;;;16.67;13.00;;;17.40;94.30;;;;;;5076804;28;20059;-46
2023/07/29 00:35:19;;;;;;;16.83;14.70;;;17.40;94.40;;;;;;5058473;28;20020;-48
2023/07/29 00:37:45;;;;;;;18.63;14.63;;;17.40;94.40;;;;;;5076839;28;20021;-46
2023/07/29 00:40:19;;;;;;;16.80;13.43;;;17.40;94.50;;;;;;5076770;28;20025;-46
2023/07/29 00:42:46;;;;;;;17.33;15.10;;;17.40;94.60;;;;;;5058357;28;20037;-48
2023/07/29 00:45:13;;;;;;;17.90;15.15;;;17.40;94.50;;;;;;5076766;28;20491;-47
2023/07/29 00:47:41;;;;;;;18.70;15.05;;;17.40;94.60;;;;;;5075896;28;20037;-46
2023/07/29 00:50:10;;;;;;;20.98;16.90;;;17.40;94.60;;;;;;5076648;28;20017;-47
2023/07/29 00:52:37;;;;;;;20.40;15.10;;;17.40;94.60;;;;;;5076733;28;20033;-46
2023/07/29 00:55:05;;;;;;;19.92;16.55;;;17.50;94.60;;;;;;5041605;28;20287;-46
2023/07/29 00:57:32;;;;;;;15.15;13.55;;;17.50;94.60;;;;;;5058603;28;20025;-47
2023/07/29 01:00:04;;;;;;;17.42;13.98;;;17.50;94.60;;;;;;5076161;28;20425;-46
2023/07/29 01:02:32;;;;;;;16.92;14.18;;;17.50;94.50;;;;;;5076473;28;20468;-46
2023/07/29 01:05:00;;;;;;;18.45;15.35;;;17.50;94.50;;;;;;5075527;28;20028;-46
2023/07/29 01:08:31;;;;;;;15.65;12.82;;;17.50;94.50;;;;;;5076318;28;20112;-46
2023/07/29 01:11:37;;;;;;;15.10;12.73;;;17.40;94.50;;;;;;4959398;28;20058;-46
2023/07/29 01:14:08;;;;;;;16.15;13.63;;;17.50;94.50;;;;;;4974655;28;20051;-46
2023/07/29 01:16:55;;;;;;;17.10;14.07;;;17.40;94.50;;;;;;4975341;28;20050;-46
2023/07/29 01:19:58;;;;;;;18.17;15.23;;;17.40;94.50;;;;;;4975144;28;20474;-46
2023/07/29 01:22:25;;;;;;;15.75;13.02;;;17.40;94.40;;;;;;4959357;28;20061;-46
2023/07/29 01:24:52;;;;;;;17.55;12.70;;;17.40;94.50;;;;;;4975089;28;20408;-45
2023/07/29 01:27:19;;;;;;;15.75;13.23;;;17.40;94.50;;;;;;4975124;28;20035;-46
2023/07/29 01:29:44;;;;;;;16.63;13.20;;;17.40;94.50;;;;;;4978480;28;20050;-46
2023/07/29 01:32:17;;;;;;;16.80;14.30;;;17.30;94.40;;;;;;4985913;28;20078;-46
2023/07/29 01:34:56;;;;;;;16.00;13.68;;;17.30;94.40;;;;;;4977142;28;20057;-46
2023/07/29 01:37:27;;;;;;;17.20;12.52;;;17.30;94.40;;;;;;4971306;28;20066;-46
2023/07/29 01:39:58;;;;;;;16.08;13.52;;;17.20;94.30;;;;;;4994384;28;20037;-46
2023/07/29 01:42:26;;;;;;;17.23;14.07;;;17.20;94.30;;;;;;5052977;28;20130;-46
2023/07/29 01:44:53;;;;;;;17.80;15.13;;;17.10;94.30;;;;;;5054923;28;20025;-46
2023/07/29 01:47:23;;;;;;;19.45;14.27;;;17.10;94.30;;;;;;5055226;28;20108;-46
2023/07/29 01:49:49;;;;;;;18.63;14.82;;;17.10;94.30;;;;;;5054570;28;20044;-46
2023/07/29 01:52:16;;;;;;;16.08;13.30;;;17.10;94.40;;;;;;5038072;28;20036;-46
2023/07/29 01:54:45;;;;;;;21.17;15.95;;;17.10;94.40;;;;;;5055023;28;20373;-45
2023/07/29 01:57:12;;;;;;;16.20;14.02;;;17.00;94.40;;;;;;5053077;28;20037;-47
2023/07/29 01:59:40;;;;;;;18.65;14.52;;;17.00;94.50;;;;;;5055239;28;20090;-45
2023/07/29 02:02:06;;;;;;;19.30;16.27;;;17.00;94.50;;;;;;5055353;28;20045;-45
2023/07/29 02:04:33;;;;;;;18.65;13.80;;;17.00;94.40;;;;;;5055210;28;20060;-46
2023/07/29 02:07:00;;;;;;;16.13;13.13;;;17.00;94.50;;;;;;5054581;28;20353;-45
2023/07/29 02:09:27;;;;;;;17.25;12.75;;;16.90;94.40;;;;;;5033313;28;20036;-44
2023/07/29 02:11:53;;;;;;;21.33;15.05;;;16.90;94.40;;;;;;5035169;28;20021;-46
2023/07/29 02:14:20;;;;;;;18.20;15.55;;;16.90;94.50;;;;;;5041846;28;20048;-46
2023/07/29 02:16:46;;;;;;;18.95;15.25;;;16.90;94.60;;;;;;5054823;28;20076;-45
2023/07/29 02:19:15;;;;;;;20.77;16.67;;;16.90;94.70;;;;;;5054843;28;20481;-46
2023/07/29 02:21:42;;;;;;;19.85;14.18;;;16.90;94.70;;;;;;5037190;28;20426;-45
2023/07/29 02:24:09;;;;;;;18.67;15.50;;;16.90;94.80;;;;;;5054381;28;20039;-45
2023/07/29 02:26:36;;;;;;;20.15;14.88;;;16.90;94.80;;;;;;5054769;28;20025;-44
2023/07/29 02:29:03;;;;;;;18.33;14.07;;;16.90;94.80;;;;;;5054110;28;20086;-45
2023/07/29 02:31:28;;;;;;;20.58;14.77;;;16.90;94.70;;;;;;5036927;28;20112;-45
2023/07/29 02:33:57;;;;;;;17.05;13.90;;;16.80;94.70;;;;;;5054368;28;20135;-45
2023/07/29 02:36:24;;;;;;;22.00;17.02;;;16.90;94.80;;;;;;5074526;28;20021;-45
2023/07/29 02:38:53;;;;;;;19.40;14.32;;;16.80;94.70;;;;;;5073948;28;20074;-44
2023/07/29 02:41:20;;;;;;;21.90;16.75;;;16.80;94.70;;;;;;5074447;28;20025;-46
2023/07/29 02:43:53;;;;;;;18.02;14.90;;;16.80;94.70;;;;;;5073953;28;20039;-44
2023/07/29 02:46:22;;;;;;;21.88;15.10;;;16.70;94.70;;;;;;5074276;28;20110;-45
2023/07/29 02:48:50;;;;;;;20.50;16.50;;;16.70;94.70;;;;;;5073984;28;20424;-44
2023/07/29 02:51:17;;;;;;;19.15;15.60;;;16.80;94.80;;;;;;5074234;28;20412;-45
2023/07/29 02:53:42;;;;;;;23.13;17.98;;;16.70;94.80;;;;;;5055618;28;20523;-45
2023/07/29 02:56:09;;;;;;;24.45;18.05;;;16.80;94.90;;;;;;5074349;28;20099;-45
2023/07/29 02:58:37;;;;;;;29.85;20.60;;;16.80;94.90;;;;;;5074125;28;20330;-44
2023/07/29 03:01:05;;;;;;;22.13;16.75;;;16.80;95.00;;;;;;5073057;28;20032;-44
2023/07/29 03:03:31;;;;;;;28.77;20.17;;;16.90;95.10;;;;;;5056197;28;20555;-45
2023/07/29 03:06:04;;;;;;;23.40;19.17;;;16.90;95.20;;;;;;5073959;28;20112;-45
2023/07/29 03:08:32;;;;;;;23.30;17.38;;;16.90;95.20;;;;;;5073336;28;20040;-44
2023/07/29 03:10:58;;;;;;;22.42;18.08;;;16.90;95.20;;;;;;5072982;28;20356;-45
2023/07/29 03:13:26;;;;;;;23.67;19.92;;;16.90;95.20;;;;;;5073407;28;20414;-44
2023/07/29 03:16:06;;;;;;;22.92;17.00;;;16.90;95.20;;;;;;5055729;28;20480;-44
2023/07/29 03:18:33;;;;;;;25.65;20.13;;;16.90;95.20;;;;;;5056240;28;20058;-44
2023/07/29 03:21:01;;;;;;;26.80;21.10;;;16.90;95.30;;;;;;5072366;28;20029;-45
2023/07/29 03:23:29;;;;;;;22.48;18.92;;;16.90;95.30;;;;;;5073333;28;20021;-44
2023/07/29 03:25:58;;;;;;;24.65;20.42;;;16.90;95.30;;;;;;5073055;28;20035;-45
2023/07/29 03:28:32;;;;;;;23.20;18.35;;;16.90;95.30;;;;;;5072175;28;20032;-44
2023/07/29 03:30:58;;;;;;;23.25;18.85;;;16.90;95.40;;;;;;5055470;28;20047;-44
2023/07/29 03:33:28;;;;;;;22.02;18.42;;;16.90;95.40;;;;;;5072140;28;20075;-47
2023/07/29 03:35:55;;;;;;;;;;;16.90;95.40;;;;;;5073527;28;20047;-46
2023/07/29 03:38:22;;;;;;;21.17;17.58;;;16.90;95.40;;;;;;5072187;28;19999;-44
2023/07/29 03:40:50;;;;;;;21.73;18.58;;;16.90;95.50;;;;;;5072680;28;20507;-44
2023/07/29 03:43:19;;;;;;;25.52;18.98;;;16.90;95.40;;;;;;5038921;28;20028;-47
2023/07/29 03:45:48;;;;;;;20.17;15.50;;;16.90;95.40;;;;;;5071927;28;20047;-44
2023/07/29 03:48:15;;;;;;;21.77;17.67;;;16.90;95.50;;;;;;5072941;28;20103;-45
2023/07/29 03:50:41;;;;;;;19.80;16.15;;;16.90;95.50;;;;;;5054830;28;20759;-44
2023/07/29 03:53:09;;;;;;;21.95;18.70;;;16.90;95.50;;;;;;5053779;28;20365;-45
2023/07/29 03:55:37;;;;;;;23.75;17.95;;;16.90;95.40;;;;;;5054744;28;20451;-44
2023/07/29 03:58:04;;;;;;;20.98;17.70;;;16.80;95.50;;;;;;5053589;28;20024;-45
2023/07/29 04:00:31;;;;;;;22.27;17.85;;;16.90;95.50;;;;;;5072634;28;20472;-44
2023/07/29 04:02:58;;;;;;;20.98;17.95;;;16.90;95.50;;;;;;5054848;28;20051;-45
2023/07/29 04:05:25;;;;;;;18.30;15.98;;;16.90;95.60;;;;;;5072556;28;20044;-45
2023/07/29 04:07:53;;;;;;;20.35;17.58;;;16.90;95.60;;;;;;5072538;28;20113;-44
2023/07/29 04:10:20;;;;;;;19.20;16.75;;;16.90;95.50;;;;;;5072289;28;20025;-45
2023/07/29 04:12:50;;;;;;;19.33;17.27;;;16.90;95.50;;;;;;5073249;28;20047;-44
2023/07/29 04:15:17;;;;;;;18.65;16.70;;;16.90;95.60;;;;;;5055217;28;20182;-45
2023/07/29 04:17:43;;;;;;;17.98;16.08;;;16.90;95.50;;;;;;5072470;28;21940;-44
2023/07/29 04:20:11;;;;;;;21.02;18.10;;;16.90;95.60;;;;;;5073043;28;20400;-45
2023/07/29 04:22:38;;;;;;;21.45;18.95;;;16.90;95.50;;;;;;5073090;28;20024;-44
2023/07/29 04:25:05;;;;;;;17.63;15.65;;;17.00;95.50;;;;;;5073039;28;20024;-44
2023/07/29 04:27:32;;;;;;;22.13;18.05;;;16.90;95.50;;;;;;5072089;28;20050;-45
2023/07/29 04:30:01;;;;;;;17.35;15.55;;;16.90;95.50;;;;;;5073211;28;20028;-45
2023/07/29 04:32:27;;;;;;;19.08;16.88;;;17.00;95.50;;;;;;5072237;28;20138;-45
2023/07/29 04:34:54;;;;;;;18.80;16.75;;;17.00;95.50;;;;;;5055497;28;20460;-44
2023/07/29 04:37:23;;;;;;;20.60;17.45;;;17.00;95.50;;;;;;5072442;28;20025;-44
2023/07/29 04:39:54;;;;;;;24.52;18.15;;;17.00;95.60;;;;;;5055187;28;20360;-45
2023/07/29 04:42:21;;;;;;;19.05;16.48;;;17.10;95.60;;;;;;5072998;28;20071;-45
2023/07/29 04:44:48;;;;;;;19.60;17.30;;;17.10;95.50;;;;;;5055754;28;20429;-44
2023/07/29 04:47:14;;;;;;;18.63;16.73;;;17.10;95.50;;;;;;5072106;28;20364;-45
2023/07/29 04:49:41;;;;;;;18.33;15.57;;;17.10;95.60;;;;;;5072773;28;20056;-45
2023/07/29 04:52:08;;;;;;;20.38;17.10;;;17.20;95.50;;;;;;5054218;28;20054;-44
2023/07/29 04:54:37;;;;;;;22.13;17.80;;;17.20;95.50;;;;;;5072945;28;20409;-44
2023/07/29 04:57:04;;;;;;;21.13;17.10;;;17.20;95.50;;;;;;5072645;28;20021;-47
2023/07/29 04:59:34;;;;;;;21.65;19.00;;;17.30;95.40;;;;;;5055277;28;20587;-45
2023/07/29 05:02:00;;;;;;;18.80;16.40;;;17.30;95.40;;;;;;5072040;28;20021;-45
2023/07/29 05:04:27;;;;;;;18.60;16.60;;;17.30;95.40;;;;;;5072907;28;20024;-44
2023/07/29 05:06:54;;;;;;;20.60;16.65;;;17.40;95.40;;;;;;5072304;28;20028;-46
2023/07/29 05:09:19;;;;;;;14.73;13.25;;;17.40;95.40;;;;;;5055926;28;20040;-45
2023/07/29 05:11:47;;;;;;;24.55;19.70;;;17.40;95.40;;;;;;5057740;28;20086;-45
2023/07/29 05:14:15;;;;;;;22.02;17.13;;;17.50;95.30;;;;;;5075290;28;20052;-44
2023/07/29 05:16:42;;;;;;;19.30;17.30;;;17.60;95.40;;;;;;5074797;28;20353;-44
2023/07/29 05:19:08;;;;;;;18.13;16.25;;;17.60;95.30;;;;;;5075949;28;20131;-44
2023/07/29 05:21:35;;;;;;;17.65;15.82;;;17.60;95.20;;;;;;5076134;28;20468;-45
2023/07/29 05:24:02;;;;;;;19.27;16.90;;;17.70;95.20;;;;;;5075575;28;20051;-46
2023/07/29 05:26:29;;;;;;;17.92;15.82;;;17.80;95.20;;;;;;5075666;28;20452;-47
2023/07/29 05:28:56;;;;;;;17.13;15.52;;;17.80;95.10;;;;;;5075359;28;20522;-44
2023/07/29 05:31:22;;;;;;;15.68;13.85;;;17.80;95.00;;;;;;5075692;28;20150;-44
2023/07/29 05:33:49;;;;;;;18.48;15.48;;;17.80;95.00;;;;;;5075037;28;20472;-45
2023/07/29 05:36:19;;;;;;;18.33;15.18;;;17.90;94.90;;;;;;5057955;28;20029;-44
2023/07/29 05:38:45;;;;;;;18.70;16.70;;;17.90;94.90;;;;;;5075753;28;20020;-45
2023/07/29 05:41:12;;;;;;;17.95;14.35;;;17.90;94.70;;;;;;5075148;28;20033;-46
2023/07/29 05:43:43;;;;;;;15.00;13.48;;;17.90;94.80;;;;;;5058211;28;20040;-44
2023/07/29 05:46:10;;;;;;;16.35;14.52;;;18.00;94.70;;;;;;5075532;28;20033;-44
2023/07/29 05:48:36;;;;;;;14.95;13.45;;;18.00;94.60;;;;;;5050221;28;20029;-45
2023/07/29 05:51:05;;;;;;;15.20;13.07;;;18.00;94.50;;;;;;5055530;28;20115;-46
2023/07/29 05:53:32;;;;;;;15.50;13.90;;;18.10;94.40;;;;;;5054180;28;20036;-45
2023/07/29 05:55:59;;;;;;;14.50;12.88;;;18.20;94.30;;;;;;5057229;28;20024;-46
2023/07/29 05:58:31;;;;;;;16.20;14.50;;;18.10;94.00;;;;;;5057590;28;20538;-46
2023/07/29 06:00:58;;;;;;;13.80;11.80;;;18.20;94.00;;;;;;5075142;28;20040;-45
2023/07/29 06:03:25;;;;;;;16.95;15.20;;;18.30;94.00;;;;;;5074367;28;20044;-46
2023/07/29 06:05:54;;;;;;;14.60;13.10;;;18.30;93.80;;;;;;5075171;28;20024;-45
2023/07/29 06:08:21;;;;;;;16.30;13.80;;;18.40;93.80;;;;;;5075040;28;20108;-46
2023/07/29 06:10:48;;;;;;;12.80;11.57;;;18.40;93.40;;;;;;5075055;28;20044;-46
2023/07/29 06:13:15;;;;;;;17.58;15.25;;;18.40;93.10;;;;;;5074290;28;20038;-47
2023/07/29 06:15:41;;;;;;;15.98;14.40;;;18.40;93.00;;;;;;5075164;28;20080;-46
2023/07/29 06:18:10;;;;;;;15.48;12.32;;;18.40;92.80;;;;;;5074689;28;20392;-48
2023/07/29 06:20:38;;;;;;;14.40;12.77;;;18.40;92.70;;;;;;5073834;28;20476;-48
2023/07/29 06:23:04;;;;;;;12.68;11.38;;;18.50;92.90;;;;;;5074669;28;20601;-47
2023/07/29 06:25:31;;;;;;;14.27;12.82;;;18.60;93.00;;;;;;5073982;28;20116;-47
2023/07/29 06:27:58;;;;;;;14.70;12.45;;;18.50;92.90;;;;;;5074603;28;20071;-47
2023/07/29 06:30:25;;;;;;;15.57;14.07;;;18.60;92.70;;;;;;5074073;28;20029;-47
2023/07/29 06:32:51;;;;;;;13.65;12.35;;;18.60;92.50;;;;;;5074479;28;20078;-46
2023/07/29 06:35:18;;;;;;;14.25;12.75;;;18.60;92.50;;;;;;5056277;28;20043;-46
2023/07/29 06:37:45;;;;;;;15.80;14.15;;;18.70;92.40;;;;;;5074590;28;20105;-51
2023/07/29 06:40:12;;;;;;;15.05;13.15;;;18.70;92.10;;;;;;5073780;28;20042;-47
2023/07/29 06:42:37;;;;;;;16.08;14.23;;;18.70;91.90;;;;;;5073565;28;20083;-47
2023/07/29 06:45:08;;;;;;;15.30;13.70;;;18.70;92.00;;;;;;5074355;28;20052;-48
2023/07/29 06:47:33;;;;;;;13.75;11.38;;;18.70;91.60;;;;;;5074552;28;20025;-47
2023/07/29 06:49:59;;;;;;;14.13;12.73;;;18.70;91.70;;;;;;5074723;28;20032;-50
2023/07/29 06:52:26;;;;;;;17.55;13.40;;;18.70;91.60;;;;;;5073613;28;20144;-48
2023/07/29 06:54:53;;;;;;;16.88;14.02;;;18.80;91.60;;;;;;5074055;28;20039;-47
2023/07/29 06:57:20;;;;;;;12.93;11.40;;;18.80;91.40;;;;;;5074162;28;20025;-47
2023/07/29 06:59:47;;;;;;;13.80;12.40;;;18.80;91.50;;;;;;5055382;28;20449;-48
2023/07/29 07:02:15;;;;;;;14.65;13.25;;;18.90;91.50;;;;;;5073898;28;20052;-49
2023/07/29 07:04:42;;;;;;;13.88;11.98;;;19.00;91.50;;;;;;5073998;28;20111;-48
2023/07/29 07:07:07;;;;;;;14.07;12.65;;;19.00;91.10;;;;;;5073686;28;20047;-53
2023/07/29 07:09:33;;;;;;;13.40;11.07;;;19.10;91.00;;;;;;5073844;28;20024;-48
2023/07/29 07:12:00;;;;;;;13.05;11.07;;;19.00;90.90;;;;;;5073051;28;20024;-47
2023/07/29 07:14:26;;;;;;;11.77;10.30;;;19.10;90.60;;;;;;5072963;28;20397;-48
2023/07/29 07:16:53;;;;;;;11.40;9.68;;;19.20;90.90;;;;;;5056319;28;20032;-48
2023/07/29 07:19:19;;;;;;;11.23;9.43;;;19.40;90.90;;;;;;5055823;28;20020;-48
2023/07/29 07:21:45;;;;;;;11.52;9.25;;;19.30;89.30;;;;;;5073642;28;20032;-48
2023/07/29 07:24:10;;;;;;;10.95;8.52;;;19.40;89.60;;;;;;5073050;28;20036;-51
2023/07/29 07:26:37;;;;;;;10.07;8.32;;;19.40;89.40;;;;;;5074050;28;20090;-48
2023/07/29 07:29:04;;;;;;;8.55;7.43;;;19.60;89.20;;;;;;5072995;28;20021;-47
2023/07/29 07:31:34;;;;;;;8.05;6.38;;;19.70;88.90;;;;;;5072898;28;20037;-49
2023/07/29 07:34:02;;;;;;;;;;;19.80;88.70;;;;;;5072940;28;20083;-48
2023/07/29 07:36:28;;;;;;;11.43;6.25;;;19.90;88.40;;;;;;5073755;28;19905;-50
2023/07/29 07:38:55;;;;;;;10.13;6.43;;;20.00;88.20;;;;;;5072653;28;20024;-48
2023/07/29 07:41:24;;;;;;;8.95;6.13;;;20.30;86.80;;;;;;5073526;28;20104;-49
2023/07/29 07:43:53;;;;;;;8.38;5.68;;;20.40;86.70;;;;;;5072812;28;20036;-48
2023/07/29 07:46:20;;;;;;;9.38;4.97;;;20.90;86.10;;;;;;5055941;28;20410;-48
2023/07/29 07:48:47;;;;;;;8.93;5.30;;;21.40;85.20;;;;;;5072610;28;20107;-50
2023/07/29 07:51:14;;;;;;;7.15;4.25;;;21.40;82.20;;;;;;5073743;28;20025;-50
2023/07/29 07:53:48;;;;;;;7.88;4.88;;;21.40;82.00;;;;;;5073064;28;20099;-49
2023/07/29 07:56:15;;;;;;;7.55;4.13;;;21.30;81.10;;;;;;5073339;28;20064;-50
2023/07/29 07:58:42;;;;;;;9.20;4.68;;;21.10;81.20;;;;;;5058587;28;20032;-49
2023/07/29 08:01:09;;;;;;;5.63;3.40;;;20.90;81.60;;;;;;5073275;28;20025;-49
2023/07/29 08:03:40;;;;;;;5.53;3.35;;;20.70;83.00;;;;;;5073282;28;20488;-48
2023/07/29 08:06:07;;;;;;;8.95;4.93;;;20.80;83.80;;;;;;5072626;28;20028;-49
2023/07/29 08:08:33;;;;;;;5.57;3.83;;;20.60;83.50;;;;;;5073310;28;20043;-48
2023/07/29 08:11:00;;;;;;;6.50;4.28;;;20.60;83.30;;;;;;5073370;28;20077;-49
2023/07/29 08:13:27;;;;;;;5.80;3.75;;;20.70;83.00;;;;;;5072276;28;20025;-50
2023/07/29 08:15:54;;;;;;;7.72;3.90;;;20.80;82.50;;;;;;5055561;28;20025;-51
2023/07/29 08:18:21;;;;;;;4.82;3.35;;;20.90;83.00;;;;;;5073341;28;20079;-48
2023/07/29 08:20:55;;;;;;;5.75;3.35;;;21.00;82.80;;;;;;5073121;28;20025;-49
2023/07/29 08:23:22;;;;;;;7.13;3.22;;;20.90;82.70;;;;;;5072460;28;20033;-48
2023/07/29 08:25:53;;;;;;;6.78;3.13;;;21.00;83.30;;;;;;5055355;28;20043;-50
2023/07/29 08:28:21;;;;;;;7.05;3.60;;;21.20;82.90;;;;;;5072375;28;20020;-49
2023/07/29 08:30:50;;;;;;;4.88;3.08;;;21.20;81.70;;;;;;5073148;28;20025;-50
2023/07/29 08:33:16;;;;;;;6.55;3.38;;;21.20;82.90;;;;;;5072278;28;20049;-48
2023/07/29 08:35:43;;;;;;;5.35;2.72;;;21.40;81.00;;;;;;5055196;28;20476;-51
2023/07/29 08:38:11;;;;;;;7.38;2.45;;;21.90;81.90;;;;;;5072941;28;20043;-48
2023/07/29 08:40:41;;;;;;;4.30;2.33;;;22.40;81.90;;;;;;5072270;28;20029;-52
2023/07/29 08:43:10;;;;;;;3.80;2.55;;;22.60;77.90;;;;;;5074228;28;20020;-49
2023/07/29 08:45:39;;;;;;;4.97;2.47;;;22.80;77.60;;;;;;5076806;28;20067;-49
2023/07/29 08:48:10;;;;;;;4.43;2.50;;;23.00;76.60;;;;;;5076189;28;20029;-50
2023/07/29 08:50:37;;;;;;;5.82;2.22;;;23.20;76.40;;;;;;5059076;28;20465;-51
2023/07/29 08:53:07;;;;;;;3.40;2.15;;;23.30;75.40;;;;;;5075431;28;20033;-50
2023/07/29 08:55:33;;;;;;;3.75;1.95;;;23.60;77.20;;;;;;5058815;28;20345;-52
2023/07/29 08:58:00;;;;;;;3.78;2.17;;;23.90;76.00;;;;;;5075560;28;20123;-49
2023/07/29 09:00:28;;;;;;;4.35;2.17;;;24.10;73.30;;;;;;5076636;28;20031;-53
2023/07/29 09:02:55;;;;;;;4.03;2.40;;;23.90;72.90;;;;;;5075131;28;20043;-51
2023/07/29 09:05:22;;;;;;;5.32;2.50;;;23.70;73.00;;;;;;5076417;28;20024;-50
2023/07/29 09:07:53;;;;;;;4.38;2.05;;;23.40;74.20;;;;;;5076310;28;20480;-50
2023/07/29 09:10:22;;;;;;;4.97;2.05;;;23.30;75.60;;;;;;5076276;28;20047;-49
2023/07/29 09:12:49;;;;;;;3.88;2.03;;;23.20;75.80;;;;;;5057581;28;20066;-50
2023/07/29 09:15:37;;;;;;;6.15;2.13;;;23.10;75.40;;;;;;5076215;28;20077;-50
2023/07/29 09:18:14;;;;;;;6.68;2.47;;;22.80;75.20;;;;;;5076191;28;20021;-48
2023/07/29 09:20:41;;;;;;;4.72;2.13;;;22.90;75.00;;;;;;5057681;28;20017;-49
2023/07/29 09:23:10;;;;;;;3.75;1.98;;;22.70;75.10;;;;;;5076054;28;20426;-49
2023/07/29 09:25:42;;;;;;;5.30;2.25;;;22.50;75.20;;;;;;5074881;28;20039;-49
2023/07/29 09:28:11;;;;;;;7.32;2.00;;;22.40;76.20;;;;;;5058268;28;20032;-49
2023/07/29 09:30:44;;;;;;;3.47;2.05;;;22.50;76.60;;;;;;5075983;28;20096;-52
2023/07/29 09:33:10;;;;;;;4.97;2.10;;;23.10;76.50;;;;;;5074841;28;20048;-50
2023/07/29 09:35:38;;;;;;;4.32;2.10;;;23.50;75.20;;;;;;5075647;28;20099;-52
2023/07/29 09:38:05;;;;;;;4.20;2.35;;;24.10;73.70;;;;;;5075994;28;20021;-49
2023/07/29 09:40:37;;;;;;;5.00;1.98;;;24.40;70.20;;;;;;5075837;28;20036;-51
2023/07/29 09:43:03;;;;;;;7.78;2.13;;;24.50;69.80;;;;;;5075068;28;20027;-51
2023/07/29 09:45:34;;;;;;;3.65;1.83;;;24.80;69.60;;;;;;5058518;28;20040;-49
2023/07/29 09:48:02;;;;;;;4.75;1.92;;;24.10;69.90;;;;;;5058001;28;20426;-48
2023/07/29 09:50:29;;;;;;;4.85;1.75;;;24.00;69.60;;;;;;5074550;28;20047;-51
2023/07/29 09:53:00;;;;;;;3.63;1.98;;;23.30;70.80;;;;;;5075358;28;20024;-50
2023/07/29 09:55:28;;;;;;;3.13;1.75;;;23.20;72.30;;;;;;5056730;28;20081;-50
2023/07/29 09:58:01;;;;;;;3.60;1.73;;;23.20;73.60;;;;;;5074761;28;20028;-53
2023/07/29 10:00:31;;;;;;;3.80;2.17;;;23.40;73.90;;;;;;5075148;28;20028;-53
2023/07/29 10:03:01;;;;;;;4.97;1.88;;;22.90;72.30;;;;;;5074672;28;20453;-50
2023/07/29 10:05:29;;;;;;;3.90;2.17;;;22.70;73.20;;;;;;5075417;28;20117;-49
2023/07/29 10:07:58;;;;;;;6.28;2.30;;;22.70;74.00;;;;;;5075411;28;20024;-53
2023/07/29 10:10:27;;;;;;;5.47;2.03;;;22.80;74.20;;;;;;5056891;28;20033;-51
2023/07/29 10:12:56;;;;;;;3.45;1.88;;;23.10;75.40;;;;;;5057449;28;20042;-51
2023/07/29 10:15:26;;;;;;;4.13;2.03;;;23.50;72.60;;;;;;5074987;28;20021;-49
2023/07/29 10:17:57;;;;;;;4.72;2.75;;;24.10;75.20;;;;;;5056625;28;20029;-50
2023/07/29 10:20:25;;;;;;;3.67;1.65;;;24.30;68.10;;;;;;5074886;28;20388;-51
2023/07/29 10:22:55;;;;;;;5.90;2.55;;;24.50;67.20;;;;;;5074653;28;20032;-50
2023/07/29 10:25:36;;;;;;;3.78;1.90;;;24.90;67.70;;;;;;5074218;28;20368;-49
2023/07/29 10:28:06;;;;;;;3.20;1.80;;;25.00;66.80;;;;;;5074850;28;20108;-49
2023/07/29 10:30:33;;;;;;;4.20;2.03;;;25.00;66.60;;;;;;5074191;28;20032;-50
2023/07/29 10:33:06;;;;;;;4.35;1.75;;;24.90;66.00;;;;;;5074489;28;20059;-49
2023/07/29 10:35:35;;;;;;;3.70;1.83;;;24.60;67.30;;;;;;5057271;28;20113;-52
2023/07/29 10:38:04;;;;;;;5.40;1.75;;;24.60;66.80;;;;;;5074610;28;20024;-52
2023/07/29 10:41:07;;;;;;;5.05;1.70;;;25.10;66.50;;;;;;5073906;28;20021;-53
2023/07/29 10:43:40;;;;;;;2.90;1.45;;;24.80;63.80;;;;;;5074438;28;20071;-50
2023/07/29 10:46:23;;;;;;;3.55;1.88;;;24.80;65.60;;;;;;5074392;28;20416;-49
2023/07/29 10:48:55;;;;;;;3.25;1.63;;;24.50;64.60;;;;;;5073998;28;20036;-49
2023/07/29 10:51:35;;;;;;;4.38;1.98;;;24.20;65.40;;;;;;5073735;28;20020;-49
2023/07/29 10:54:14;;;;;;;4.18;2.58;;;23.90;66.30;;;;;;5073979;28;20232;-52
2023/07/29 10:56:46;;;;;;;5.75;2.53;;;23.60;67.70;;;;;;5073620;28;20063;-51
2023/07/29 10:59:17;;;;;;;4.63;2.05;;;23.60;68.80;;;;;;5074287;28;20024;-48
2023/07/29 11:02:11;;;;;;;7.65;3.13;;;23.60;69.90;;;;;;5074200;28;20029;-49
2023/07/29 11:04:47;;;;;;;5.25;2.60;;;23.90;69.60;;;;;;5039667;28;20043;-49
2023/07/29 11:07:15;;;;;;;5.03;2.25;;;23.90;68.10;;;;;;5073623;28;20142;-53
2023/07/29 11:10:01;;;;;;;4.20;2.72;;;23.70;68.90;;;;;;5074004;28;20032;-50
2023/07/29 11:12:48;;;;;;;4.13;2.45;;;23.90;68.60;;;;;;5073000;28;20480;-48
2023/07/29 11:15:33;;;;;;;5.70;1.92;;;23.90;68.40;;;;;;5073948;28;20035;-49
2023/07/29 11:18:02;;;;;;;5.35;1.90;;;24.00;70.10;;;;;;5072922;28;20456;-50
2023/07/29 11:20:33;;;;;;;4.07;2.20;;;23.80;67.30;;;;;;5073846;28;20356;-50
2023/07/29 11:23:05;;;;;;;6.78;1.80;;;23.90;68.20;;;;;;5072642;28;20709;-50
2023/07/29 11:25:35;;;;;;;4.78;2.38;;;23.80;67.80;;;;;;5073923;28;20441;-50
2023/07/29 11:28:02;;;;;;;4.07;2.53;;;23.70;69.00;;;;;;5072912;28;20766;-49
2023/07/29 11:30:33;;;;;;;4.47;2.33;;;23.90;69.30;;;;;;5073722;28;20354;-54
2023/07/29 11:33:04;;;;;;;7.35;2.22;;;24.40;67.70;;;;;;5072340;28;20053;-48
2023/07/29 11:35:32;;;;;;;5.35;2.20;;;24.90;71.40;;;;;;5055745;28;20539;-51
2023/07/29 11:38:01;;;;;;;4.10;2.17;;;25.10;65.90;;;;;;5073888;28;20106;-51
2023/07/29 11:40:27;;;;;;;5.00;2.05;;;25.20;66.30;;;;;;5072999;28;20348;-51
2023/07/29 11:42:54;;;;;;;4.78;1.67;;;25.30;64.70;;;;;;5073104;28;20029;-52
2023/07/29 11:45:23;;;;;;;5.72;2.63;;;25.30;66.00;;;;;;5073301;28;20046;-51
2023/07/29 11:47:50;;;;;;;3.78;1.70;;;25.20;66.90;;;;;;5073608;28;20048;-50
2023/07/29 11:50:16;;;;;;;6.32;2.60;;;25.30;67.80;;;;;;5051573;28;20037;-49
2023/07/29 11:52:46;;;;;;;4.55;2.30;;;25.20;64.30;;;;;;5053449;28;20100;-51
2023/07/29 11:55:13;;;;;;;;;;;24.80;66.50;;;;;;5068940;28;20040;-49
2023/07/29 11:57:42;;;;;;;4.80;2.40;;;24.90;68.00;;;;;;5073499;28;19915;-51
2023/07/29 12:00:11;;;;;;;3.85;2.03;;;24.80;68.10;;;;;;5072702;28;20081;-51
2023/07/29 12:02:39;;;;;;;;;;;24.90;69.40;;;;;;5053926;28;20080;-50
2023/07/29 12:05:08;;;;;;;4.10;2.58;;;24.70;67.30;;;;;;5053285;28;19909;-51
2023/07/29 12:07:38;;;;;;;6.70;3.20;;;24.60;68.40;;;;;;5053422;28;20107;-48
2023/07/29 12:10:05;;;;;;;2.90;1.83;;;24.40;69.10;;;;;;5053079;28;20409;-51
2023/07/29 12:12:32;;;;;;;6.38;2.20;;;24.10;68.20;;;;;;5073118;28;20028;-50
2023/07/29 12:15:00;;;;;;;6.55;2.83;;;23.70;69.80;;;;;;5055540;28;20058;-51
2023/07/29 12:17:27;;;;;;;4.72;2.08;;;23.50;69.70;;;;;;5073430;28;20077;-50
2023/07/29 12:19:55;;;;;;;5.78;2.08;;;23.40;70.40;;;;;;5076575;28;20475;-52
2023/07/29 12:22:21;;;;;;;3.95;1.83;;;23.50;71.50;;;;;;5077357;28;20085;-50
2023/07/29 12:24:52;;;;;;;4.72;2.42;;;23.70;72.30;;;;;;5059057;28;20180;-49
2023/07/29 12:27:22;;;;;;;3.72;1.85;;;23.90;70.80;;;;;;5076660;28;20028;-51
2023/07/29 12:29:51;;;;;;;3.63;1.77;;;24.10;69.10;;;;;;5077079;28;20094;-52
2023/07/29 12:32:17;;;;;;;4.57;2.20;;;24.40;69.40;;;;;;5076276;28;20106;-50
2023/07/29 12:34:45;;;;;;;3.88;1.80;;;24.70;69.80;;;;;;5059216;28;20040;-50
2023/07/29 12:37:12;;;;;;;6.00;1.98;;;25.10;69.00;;;;;;5059488;28;20028;-52
2023/07/29 12:39:42;;;;;;;7.78;2.33;;;25.30;66.90;;;;;;5076400;28;20021;-50
2023/07/29 12:42:09;;;;;;;3.55;2.17;;;25.40;65.20;;;;;;5076929;28;20020;-52
2023/07/29 12:44:41;;;;;;;5.30;1.85;;;25.20;63.50;;;;;;5076793;28;20039;-50